createdAt,value
2023-04-13T00:03:33.493Z,7.45
2023-04-13T00:07:39.036Z,7.37
2023-04-13T00:11:42.411Z,7.38
2023-04-13T00:15:45.701Z,7.28
2023-04-13T00:19:50.341Z,7.22
2023-04-13T00:23:54.984Z,7.19
2023-04-13T00:27:58.114Z,7.13
2023-04-13T00:32:04.723Z,7.12
2023-04-13T00:36:08.538Z,7.25
2023-04-13T00:40:15.971Z,7.28
2023-04-13T00:44:20.055Z,7.45
2023-04-13T00:48:23.512Z,7.53
2023-04-13T00:52:26.639Z,7.60
2023-04-13T00:56:34.052Z,7.69
2023-04-13T01:00:39.226Z,7.75
2023-04-13T01:04:42.700Z,7.76
2023-04-13T01:08:49.152Z,7.64
2023-04-13T01:13:03.163Z,7.58
2023-04-13T01:17:15.735Z,7.58
2023-04-13T01:21:21.854Z,7.52
2023-04-13T01:25:40.524Z,7.57
2023-04-13T01:29:47.279Z,7.56
2023-04-13T01:33:51.442Z,7.66
2023-04-13T01:37:54.801Z,7.75
2023-04-13T01:42:02.392Z,7.76
2023-04-13T01:46:14.032Z,7.78
2023-04-13T01:50:41.801Z,7.77
2023-04-13T01:54:53.008Z,7.79
2023-04-13T01:59:00.114Z,7.83
2023-04-13T02:03:07.320Z,7.83
2023-04-13T02:07:10.616Z,7.84
2023-04-13T02:11:16.305Z,7.88
2023-04-13T02:15:19.494Z,7.85
2023-04-13T02:19:24.788Z,7.56
2023-04-13T02:23:28.351Z,7.43
2023-04-13T02:27:34.814Z,7.47
2023-04-13T02:31:37.909Z,7.60
2023-04-13T02:35:42.369Z,7.57
2023-04-13T02:39:45.549Z,7.66
2023-04-13T02:43:50.227Z,7.65
2023-04-13T02:47:55.552Z,7.65
2023-04-13T02:52:01.770Z,7.67
2023-04-13T02:56:19.844Z,7.54
2023-04-13T03:00:29.582Z,7.46
2023-04-13T03:04:36.990Z,7.45
2023-04-13T03:08:41.483Z,7.39
2023-04-13T03:12:53.629Z,7.34
2023-04-13T03:16:57.800Z,7.37
2023-04-13T03:21:09.149Z,7.36
2023-04-13T03:25:20.688Z,7.27
2023-04-13T03:29:24.876Z,7.15
2023-04-13T03:33:28.045Z,6.99
2023-04-13T03:37:33.258Z,6.91
2023-04-13T03:41:48.460Z,6.99
2023-04-13T03:45:52.648Z,6.90
2023-04-13T03:49:56.007Z,6.83
2023-04-13T03:53:59.367Z,6.78
2023-04-13T03:58:04.629Z,6.72
2023-04-13T04:02:09.156Z,6.70
2023-04-13T04:06:16.937Z,6.72
2023-04-13T04:10:29.536Z,6.69
2023-04-13T04:14:36.079Z,6.85
2023-04-13T04:18:47.891Z,6.86
2023-04-13T04:22:54.964Z,6.88
2023-04-13T04:27:00.051Z,6.85
2023-04-13T04:31:05.165Z,6.89
2023-04-13T04:35:09.306Z,6.93
2023-04-13T04:39:22.659Z,6.92
2023-04-13T04:43:33.692Z,6.94
2023-04-13T04:47:42.222Z,6.99
2023-04-13T04:52:06.494Z,7.04
2023-04-13T04:56:10.356Z,7.04
2023-04-13T05:00:21.951Z,7.08
2023-04-13T05:04:36.777Z,7.05
2023-04-13T05:08:40.381Z,7.02
2023-04-13T05:12:44.613Z,6.98
2023-04-13T05:16:49.236Z,7.03
2023-04-13T05:21:01.142Z,7.07
2023-04-13T05:25:05.188Z,7.14
2023-04-13T05:29:08.640Z,7.20
2023-04-13T05:33:17.127Z,7.19
2023-04-13T05:37:23.603Z,7.22
2023-04-13T05:41:27.685Z,7.23
2023-04-13T05:45:30.937Z,7.25
2023-04-13T05:49:43.813Z,7.31
2023-04-13T05:53:48.724Z,7.22
2023-04-13T05:57:51.887Z,7.18
2023-04-13T06:01:56.166Z,7.16
2023-04-13T06:05:59.548Z,7.18
2023-04-13T06:10:04.390Z,7.25
2023-04-13T06:14:07.511Z,7.34
2023-04-13T06:18:10.524Z,7.41
2023-04-13T06:22:13.566Z,7.52
2023-04-13T06:26:19.921Z,7.54
2023-04-13T06:30:28.661Z,7.63
2023-04-13T06:34:35.619Z,7.73
2023-04-13T06:38:39.088Z,7.87
2023-04-13T06:42:48.553Z,7.97
2023-04-13T06:47:13.571Z,8.12
2023-04-13T06:51:19.197Z,8.18
2023-04-13T06:55:22.400Z,8.39
2023-04-13T06:59:27.291Z,8.54
2023-04-13T07:03:32.063Z,8.48
2023-04-13T07:07:35.633Z,8.57
2023-04-13T07:11:39.640Z,8.59
2023-04-13T07:15:44.291Z,8.64
2023-04-13T07:19:50.100Z,8.50
2023-04-13T07:23:54.438Z,8.57
2023-04-13T07:27:58.763Z,8.59
2023-04-13T07:32:04.732Z,8.72
2023-04-13T07:36:10.484Z,8.86
2023-04-13T07:40:15.748Z,8.90
2023-04-13T07:44:22.862Z,9.02
2023-04-13T07:48:27.444Z,8.98
2023-04-13T07:52:33.073Z,9.05
2023-04-13T07:56:36.512Z,9.18
2023-04-13T08:00:41.578Z,9.22
2023-04-13T08:04:46.403Z,9.48
2023-04-13T08:08:55.275Z,9.46
2023-04-13T08:13:00.549Z,9.46
2023-04-13T08:17:05.616Z,9.35
2023-04-13T08:21:12.266Z,9.25
2023-04-13T08:25:17.610Z,9.38
2023-04-13T08:29:20.765Z,9.39
2023-04-13T08:33:23.989Z,9.69
2023-04-13T08:37:33.734Z,9.76
2023-04-13T08:41:41.177Z,10.01
2023-04-13T08:45:45.807Z,10.32
2023-04-13T08:49:50.379Z,10.24
2023-04-13T08:54:00.195Z,9.95
2023-04-13T08:58:09.611Z,9.76
2023-04-13T09:02:13.234Z,9.78
2023-04-13T09:06:35.810Z,10.01
2023-04-13T09:10:43.907Z,10.13
2023-04-13T09:14:48.215Z,11.12
2023-04-13T09:18:52.398Z,10.93
2023-04-13T09:22:55.403Z,11.07
2023-04-13T09:26:59.864Z,11.27
2023-04-13T09:31:05.600Z,12.38
2023-04-13T09:35:09.850Z,11.59
2023-04-13T09:39:14.319Z,10.92
2023-04-13T09:43:19.554Z,10.89
2023-04-13T09:47:22.959Z,10.66
2023-04-13T09:51:27.754Z,10.51
2023-04-13T09:55:31.675Z,10.49
2023-04-13T09:59:36.698Z,10.35
2023-04-13T10:03:40.056Z,10.37
2023-04-13T10:07:44.270Z,10.45
2023-04-13T10:11:50.814Z,10.60
2023-04-13T10:16:13.079Z,10.66
2023-04-13T10:20:17.802Z,10.76
2023-04-13T10:24:22.329Z,11.30
2023-04-13T10:28:27.309Z,11.36
2023-04-13T10:32:32.145Z,11.44
2023-04-13T10:36:40.269Z,11.18
2023-04-13T10:40:44.639Z,11.60
2023-04-13T10:44:49.288Z,11.99
2023-04-13T10:48:59.241Z,11.63
2023-04-13T10:53:05.002Z,11.29
2023-04-13T10:57:11.214Z,11.05
2023-04-13T11:01:16.832Z,10.73
2023-04-13T11:05:22.228Z,11.22
2023-04-13T11:09:25.572Z,11.52
2023-04-13T11:13:29.710Z,12.38
2023-04-13T11:17:33.051Z,12.32
2023-04-13T11:21:37.948Z,12.14
2023-04-13T11:25:52.412Z,12.19
2023-04-13T11:29:59.196Z,12.11
2023-04-13T11:34:05.287Z,11.90
2023-04-13T11:38:18.411Z,12.17
2023-04-13T11:42:21.560Z,12.74
2023-04-13T11:46:25.792Z,12.90
2023-04-13T11:50:29.392Z,13.26
2023-04-13T11:54:34.149Z,13.55
2023-04-13T11:58:39.283Z,13.35
2023-04-13T12:03:00.087Z,12.98
2023-04-13T12:07:11.763Z,13.08
2023-04-13T12:11:40.547Z,13.55
2023-04-13T12:15:47.441Z,14.29
2023-04-13T12:20:04.794Z,13.36
2023-04-13T12:24:08.425Z,13.56
2023-04-13T12:28:14.785Z,13.99
2023-04-13T12:32:18.468Z,14.82
2023-04-13T12:36:21.893Z,14.96
2023-04-13T12:40:24.891Z,15.36
2023-04-13T12:44:31.283Z,15.55
2023-04-13T12:48:36.440Z,15.26
2023-04-13T12:52:41.180Z,15.20
2023-04-13T12:56:44.184Z,14.17
2023-04-13T13:00:49.260Z,13.74
2023-04-13T13:04:52.805Z,13.39
2023-04-13T13:08:55.832Z,14.27
2023-04-13T13:13:00.646Z,14.47
2023-04-13T13:17:04.962Z,15.14
2023-04-13T13:21:07.985Z,15.31
2023-04-13T13:25:11.563Z,15.71
2023-04-13T13:29:15.193Z,15.80
2023-04-13T13:33:19.911Z,15.99
2023-04-13T13:37:23.018Z,15.64
2023-04-13T13:41:26.410Z,14.00
2023-04-13T13:45:29.487Z,15.32
2023-04-13T13:49:34.155Z,15.91
2023-04-13T13:54:03.379Z,16.38
2023-04-13T13:58:06.521Z,16.80
2023-04-13T14:02:09.729Z,15.69
2023-04-13T14:06:14.087Z,14.56
2023-04-13T14:10:17.467Z,15.13
2023-04-13T14:14:22.155Z,14.99
2023-04-13T14:18:25.902Z,14.96
2023-04-13T14:22:30.426Z,15.51
2023-04-13T14:26:36.432Z,15.86
2023-04-13T14:30:40.534Z,14.53
2023-04-13T14:34:47.766Z,14.21
2023-04-13T14:38:52.576Z,15.19
2023-04-13T14:42:55.674Z,15.95
2023-04-13T14:46:58.788Z,15.86
2023-04-13T14:51:01.889Z,14.93
2023-04-13T14:55:07.238Z,14.44
2023-04-13T14:59:10.517Z,14.11
2023-04-13T15:03:14.998Z,14.40
2023-04-13T15:07:18.985Z,14.54
2023-04-13T15:11:23.476Z,16.44
2023-04-13T15:15:27.735Z,15.90
2023-04-13T15:19:30.776Z,15.17
2023-04-13T15:23:34.288Z,14.42
2023-04-13T15:27:38.733Z,14.30
2023-04-13T15:31:41.802Z,14.81
2023-04-13T15:35:44.910Z,14.66
2023-04-13T15:39:48.020Z,14.49
2023-04-13T15:43:52.394Z,14.04
2023-04-13T15:47:55.547Z,15.78
2023-04-13T15:51:58.693Z,17.13
2023-04-13T15:56:02.143Z,15.55
2023-04-13T16:00:09.330Z,16.95
2023-04-13T16:04:12.497Z,17.47
2023-04-13T16:08:15.516Z,16.35
2023-04-13T16:12:18.800Z,15.84
2023-04-13T16:16:23.924Z,16.70
2023-04-13T16:20:28.604Z,17.08
2023-04-13T16:24:33.379Z,16.81
2023-04-13T16:28:37.372Z,16.57
2023-04-13T16:32:44.569Z,17.72
2023-04-13T16:36:47.928Z,17.10
2023-04-13T16:40:51.004Z,15.92
2023-04-13T16:44:54.039Z,14.81
2023-04-13T16:48:58.648Z,13.94
2023-04-13T16:53:01.936Z,15.95
2023-04-13T16:57:05.145Z,17.29
2023-04-13T17:01:08.323Z,17.19
2023-04-13T17:05:14.029Z,17.59
2023-04-13T17:09:17.179Z,17.39
2023-04-13T17:13:20.251Z,16.05
2023-04-13T17:17:23.316Z,14.67
2023-04-13T17:21:27.875Z,14.12
2023-04-13T17:25:30.947Z,13.69
2023-04-13T17:29:36.369Z,13.39
2023-04-13T17:33:39.437Z,13.21
2023-04-13T17:37:44.275Z,13.12
2023-04-13T17:41:47.238Z,13.04
2023-04-13T17:45:50.319Z,12.92
2023-04-13T17:49:53.401Z,12.83
2023-04-13T17:53:58.095Z,12.59
2023-04-13T17:58:01.188Z,12.42
2023-04-13T18:02:04.465Z,12.29
2023-04-13T18:06:08.456Z,12.12
2023-04-13T18:10:13.022Z,11.99
2023-04-13T18:14:16.494Z,11.94
2023-04-13T18:18:24.179Z,11.81
2023-04-13T18:22:27.369Z,11.67
2023-04-13T18:26:31.721Z,11.53
2023-04-13T18:30:34.804Z,11.38
2023-04-13T18:34:37.877Z,11.26
2023-04-13T18:38:40.991Z,11.05
2023-04-13T18:42:47.591Z,10.87
2023-04-13T18:46:50.616Z,10.77
2023-04-13T18:50:53.771Z,10.69
2023-04-13T18:54:56.748Z,10.58
2023-04-13T18:59:01.119Z,10.45
2023-04-13T19:03:04.621Z,10.39
2023-04-13T19:07:09.000Z,10.30
2023-04-13T19:11:13.872Z,10.16
2023-04-13T19:15:18.792Z,10.09
2023-04-13T19:19:22.024Z,10.02
2023-04-13T19:23:25.741Z,9.94
2023-04-13T19:27:31.238Z,9.94
2023-04-13T19:31:38.775Z,9.89
2023-04-13T19:35:44.554Z,9.92
2023-04-13T19:39:47.840Z,9.78
2023-04-13T19:43:52.325Z,9.57
2023-04-13T19:47:56.836Z,9.48
2023-04-13T19:51:59.913Z,9.35
2023-04-13T19:56:03.191Z,9.28
2023-04-13T20:00:17.176Z,9.19
2023-04-13T20:04:22.281Z,9.17
2023-04-13T20:08:25.853Z,9.05
2023-04-13T20:12:28.850Z,8.87
2023-04-13T20:16:33.084Z,8.71
2023-04-13T20:20:38.604Z,8.67
2023-04-13T20:24:41.873Z,8.50
2023-04-13T20:28:44.949Z,8.56
2023-04-13T20:32:48.449Z,8.41
2023-04-13T20:36:53.755Z,8.24
2023-04-13T20:40:57.324Z,8.09
2023-04-13T20:45:01.764Z,8.06
2023-04-13T20:49:05.709Z,8.04
2023-04-13T20:53:11.494Z,7.93
2023-04-13T20:57:16.996Z,7.97
2023-04-13T21:01:21.520Z,8.02
2023-04-13T21:05:24.613Z,8.04
2023-04-13T21:09:29.269Z,8.01
2023-04-13T21:13:32.630Z,8.15
2023-04-13T21:17:35.827Z,8.28
2023-04-13T21:21:38.834Z,8.25
2023-04-13T21:25:45.069Z,8.24
2023-04-13T21:29:49.748Z,8.25
2023-04-13T21:33:52.956Z,8.17
2023-04-13T21:37:56.194Z,8.13
2023-04-13T21:42:00.641Z,8.06
2023-04-13T21:46:03.665Z,7.97
2023-04-13T21:50:08.136Z,7.98
2023-04-13T21:54:11.528Z,8.03
2023-04-13T21:58:16.108Z,7.93
2023-04-13T22:02:19.210Z,7.90
2023-04-13T22:06:23.300Z,7.84
2023-04-13T22:10:26.482Z,7.75
2023-04-13T22:14:30.935Z,7.66
2023-04-13T22:18:33.960Z,7.61
2023-04-13T22:22:37.052Z,7.59
2023-04-13T22:26:40.049Z,7.46
2023-04-13T22:30:44.840Z,7.34
2023-04-13T22:34:47.893Z,7.25
2023-04-13T22:38:51.297Z,7.20
2023-04-13T22:42:54.837Z,7.11
2023-04-13T22:46:59.346Z,7.12
2023-04-13T22:51:03.595Z,7.02
2023-04-13T22:55:07.148Z,7.08
2023-04-13T22:59:10.303Z,7.00
2023-04-13T23:03:14.874Z,6.92
2023-04-13T23:07:18.079Z,6.81
2023-04-13T23:11:21.116Z,6.84
2023-04-13T23:15:24.386Z,6.80
2023-04-13T23:19:28.725Z,6.59
2023-04-13T23:23:31.738Z,6.60
2023-04-13T23:27:34.753Z,6.50
2023-04-13T23:31:37.758Z,6.40
2023-04-13T23:35:42.158Z,6.35
2023-04-13T23:39:45.158Z,6.18
2023-04-13T23:43:48.159Z,6.19
2023-04-13T23:47:51.283Z,6.31
2023-04-13T23:51:56.247Z,5.84
2023-04-13T23:55:59.293Z,5.54
